sensor_id;sensor_type;location;lat;lon;timestamp;P1;durP1;ratioP1;P2;durP2;ratioP2
28607;SDS011;15802;45.654;13.804;2022-08-01T00:00:27;2.30;;;1.50;;
28607;SDS011;15802;45.654;13.804;2022-08-01T00:02:53;5.00;;;1.33;;
28607;SDS011;15802;45.654;13.804;2022-08-01T00:05:18;2.90;;;1.20;;
28607;SDS011;15802;45.654;13.804;2022-08-01T00:07:44;2.70;;;1.10;;
28607;SDS011;15802;45.654;13.804;2022-08-01T00:10:11;2.28;;;1.30;;
28607;SDS011;15802;45.654;13.804;2022-08-01T00:12:39;2.47;;;1.42;;
28607;SDS011;15802;45.654;13.804;2022-08-01T00:15:06;5.53;;;1.70;;
28607;SDS011;15802;45.654;13.804;2022-08-01T00:17:33;4.28;;;1.67;;
28607;SDS011;15802;45.654;13.804;2022-08-01T00:19:58;2.35;;;1.60;;
28607;SDS011;15802;45.654;13.804;2022-08-01T00:22:24;2.42;;;1.50;;
28607;SDS011;15802;45.654;13.804;2022-08-01T00:24:50;3.38;;;1.42;;
28607;SDS011;15802;45.654;13.804;2022-08-01T00:27:16;4.47;;;1.55;;
28607;SDS011;15802;45.654;13.804;2022-08-01T00:29:42;2.03;;;1.23;;
28607;SDS011;15802;45.654;13.804;2022-08-01T00:32:07;2.13;;;1.10;;
28607;SDS011;15802;45.654;13.804;2022-08-01T00:34:33;2.85;;;1.30;;
28607;SDS011;15802;45.654;13.804;2022-08-01T00:36:59;4.00;;;1.40;;
28607;SDS011;15802;45.654;13.804;2022-08-01T00:39:25;1.95;;;1.40;;
28607;SDS011;15802;45.654;13.804;2022-08-01T00:41:50;1.88;;;1.13;;
28607;SDS011;15802;45.654;13.804;2022-08-01T00:44:16;2.45;;;1.52;;
28607;SDS011;15802;45.654;13.804;2022-08-01T00:46:42;2.45;;;1.15;;
28607;SDS011;15802;45.654;13.804;2022-08-01T00:49:08;1.50;;;1.20;;
28607;SDS011;15802;45.654;13.804;2022-08-01T00:51:33;2.13;;;1.30;;
28607;SDS011;15802;45.654;13.804;2022-08-01T00:53:59;2.60;;;1.40;;
28607;SDS011;15802;45.654;13.804;2022-08-01T00:56:26;1.67;;;1.30;;
28607;SDS011;15802;45.654;13.804;2022-08-01T00:58:54;2.05;;;1.40;;
28607;SDS011;15802;45.654;13.804;2022-08-01T01:01:20;1.73;;;1.10;;
28607;SDS011;15802;45.654;13.804;2022-08-01T01:03:48;2.05;;;1.23;;
28607;SDS011;15802;45.654;13.804;2022-08-01T01:06:36;2.50;;;1.38;;
28607;SDS011;15802;45.654;13.804;2022-08-01T01:09:24;3.25;;;1.10;;
28607;SDS011;15802;45.654;13.804;2022-08-01T01:12:12;4.43;;;1.20;;
28607;SDS011;15802;45.654;13.804;2022-08-01T01:15:02;2.45;;;1.10;;
28607;SDS011;15802;45.654;13.804;2022-08-01T01:17:35;3.10;;;1.33;;
28607;SDS011;15802;45.654;13.804;2022-08-01T01:20:06;2.05;;;1.33;;
28607;SDS011;15802;45.654;13.804;2022-08-01T01:22:45;2.95;;;1.30;;
28607;SDS011;15802;45.654;13.804;2022-08-01T01:25:33;3.35;;;1.20;;
28607;SDS011;15802;45.654;13.804;2022-08-01T01:30:59;1.60;;;1.30;;
28607;SDS011;15802;45.654;13.804;2022-08-01T01:33:26;1.92;;;1.33;;
28607;SDS011;15802;45.654;13.804;2022-08-01T01:35:57;1.85;;;1.30;;
28607;SDS011;15802;45.654;13.804;2022-08-01T01:38:28;4.78;;;1.50;;
28607;SDS011;15802;45.654;13.804;2022-08-01T01:40:57;1.88;;;1.13;;
28607;SDS011;15802;45.654;13.804;2022-08-01T01:43:23;2.00;;;1.13;;
28607;SDS011;15802;45.654;13.804;2022-08-01T01:45:51;3.60;;;1.45;;
28607;SDS011;15802;45.654;13.804;2022-08-01T01:48:19;2.25;;;1.20;;
28607;SDS011;15802;45.654;13.804;2022-08-01T01:50:47;3.80;;;1.30;;
28607;SDS011;15802;45.654;13.804;2022-08-01T01:53:15;2.83;;;1.30;;
28607;SDS011;15802;45.654;13.804;2022-08-01T01:55:43;1.65;;;1.23;;
28607;SDS011;15802;45.654;13.804;2022-08-01T01:58:12;2.85;;;1.10;;
28607;SDS011;15802;45.654;13.804;2022-08-01T02:00:39;1.45;;;1.10;;
28607;SDS011;15802;45.654;13.804;2022-08-01T02:03:07;2.40;;;1.23;;
28607;SDS011;15802;45.654;13.804;2022-08-01T02:05:36;2.58;;;1.27;;
28607;SDS011;15802;45.654;13.804;2022-08-01T02:08:04;3.15;;;1.20;;
28607;SDS011;15802;45.654;13.804;2022-08-01T02:10:31;2.28;;;1.30;;
28607;SDS011;15802;45.654;13.804;2022-08-01T02:12:59;4.07;;;1.50;;
28607;SDS011;15802;45.654;13.804;2022-08-01T02:15:28;1.58;;;1.20;;
28607;SDS011;15802;45.654;13.804;2022-08-01T02:17:56;1.50;;;1.00;;
28607;SDS011;15802;45.654;13.804;2022-08-01T02:20:22;2.70;;;1.15;;
28607;SDS011;15802;45.654;13.804;2022-08-01T02:22:53;3.83;;;1.20;;
28607;SDS011;15802;45.654;13.804;2022-08-01T02:25:23;1.73;;;1.10;;
28607;SDS011;15802;45.654;13.804;2022-08-01T02:28:09;1.70;;;1.20;;
28607;SDS011;15802;45.654;13.804;2022-08-01T02:30:39;1.55;;;1.33;;
28607;SDS011;15802;45.654;13.804;2022-08-01T02:33:12;1.88;;;1.27;;
28607;SDS011;15802;45.654;13.804;2022-08-01T02:35:50;2.25;;;1.10;;
28607;SDS011;15802;45.654;13.804;2022-08-01T02:38:18;2.72;;;1.45;;
28607;SDS011;15802;45.654;13.804;2022-08-01T02:40:47;3.40;;;1.20;;
28607;SDS011;15802;45.654;13.804;2022-08-01T02:43:18;3.95;;;1.10;;
28607;SDS011;15802;45.654;13.804;2022-08-01T02:45:50;1.92;;;1.30;;
28607;SDS011;15802;45.654;13.804;2022-08-01T02:48:19;1.98;;;0.90;;
28607;SDS011;15802;45.654;13.804;2022-08-01T02:50:48;2.15;;;1.08;;
28607;SDS011;15802;45.654;13.804;2022-08-01T02:53:17;2.28;;;1.20;;
28607;SDS011;15802;45.654;13.804;2022-08-01T02:55:45;2.97;;;1.20;;
28607;SDS011;15802;45.654;13.804;2022-08-01T02:58:14;1.77;;;1.10;;
28607;SDS011;15802;45.654;13.804;2022-08-01T03:00:42;3.05;;;1.20;;
28607;SDS011;15802;45.654;13.804;2022-08-01T03:03:09;2.78;;;1.17;;
28607;SDS011;15802;45.654;13.804;2022-08-01T03:05:36;1.98;;;1.30;;
28607;SDS011;15802;45.654;13.804;2022-08-01T03:08:05;2.63;;;1.10;;
28607;SDS011;15802;45.654;13.804;2022-08-01T03:10:33;1.85;;;1.20;;
28607;SDS011;15802;45.654;13.804;2022-08-01T03:13:01;2.35;;;1.27;;
28607;SDS011;15802;45.654;13.804;2022-08-01T03:15:29;2.38;;;1.13;;
28607;SDS011;15802;45.654;13.804;2022-08-01T03:17:58;6.90;;;1.10;;
28607;SDS011;15802;45.654;13.804;2022-08-01T03:20:27;1.80;;;1.10;;
28607;SDS011;15802;45.654;13.804;2022-08-01T03:22:53;2.00;;;1.13;;
28607;SDS011;15802;45.654;13.804;2022-08-01T03:25:21;2.13;;;1.08;;
28607;SDS011;15802;45.654;13.804;2022-08-01T03:27:50;2.63;;;1.17;;
28607;SDS011;15802;45.654;13.804;2022-08-01T03:30:21;3.35;;;1.45;;
28607;SDS011;15802;45.654;13.804;2022-08-01T03:32:48;1.73;;;0.90;;
28607;SDS011;15802;45.654;13.804;2022-08-01T03:35:14;3.42;;;1.30;;
28607;SDS011;15802;45.654;13.804;2022-08-01T03:37:42;2.58;;;1.13;;
28607;SDS011;15802;45.654;13.804;2022-08-01T03:40:13;1.45;;;0.90;;
28607;SDS011;15802;45.654;13.804;2022-08-01T03:42:46;1.73;;;0.95;;
28607;SDS011;15802;45.654;13.804;2022-08-01T03:45:19;3.92;;;1.20;;
28607;SDS011;15802;45.654;13.804;2022-08-01T03:47:48;2.85;;;1.17;;
28607;SDS011;15802;45.654;13.804;2022-08-01T03:50:18;2.05;;;1.20;;
28607;SDS011;15802;45.654;13.804;2022-08-01T03:52:47;2.03;;;1.30;;
28607;SDS011;15802;45.654;13.804;2022-08-01T03:55:15;2.75;;;1.25;;
28607;SDS011;15802;45.654;13.804;2022-08-01T03:57:43;1.88;;;1.13;;
28607;SDS011;15802;45.654;13.804;2022-08-01T04:00:11;1.85;;;1.02;;
28607;SDS011;15802;45.654;13.804;2022-08-01T04:02:37;2.80;;;1.25;;
28607;SDS011;15802;45.654;13.804;2022-08-01T04:05:03;1.95;;;1.20;;
28607;SDS011;15802;45.654;13.804;2022-08-01T04:07:31;3.15;;;1.15;;
28607;SDS011;15802;45.654;13.804;2022-08-01T04:09:57;2.10;;;1.27;;
28607;SDS011;15802;45.654;13.804;2022-08-01T04:12:23;2.13;;;1.20;;
28607;SDS011;15802;45.654;13.804;2022-08-01T04:14:49;2.42;;;1.50;;
28607;SDS011;15802;45.654;13.804;2022-08-01T04:17:16;2.38;;;1.20;;
28607;SDS011;15802;45.654;13.804;2022-08-01T04:19:42;2.30;;;1.30;;
28607;SDS011;15802;45.654;13.804;2022-08-01T04:22:09;2.53;;;1.20;;
28607;SDS011;15802;45.654;13.804;2022-08-01T04:24:36;2.00;;;1.25;;
28607;SDS011;15802;45.654;13.804;2022-08-01T04:27:04;3.13;;;1.35;;
28607;SDS011;15802;45.654;13.804;2022-08-01T04:29:35;2.15;;;1.17;;
28607;SDS011;15802;45.654;13.804;2022-08-01T04:32:03;2.72;;;1.30;;
28607;SDS011;15802;45.654;13.804;2022-08-01T04:34:32;2.50;;;1.20;;
28607;SDS011;15802;45.654;13.804;2022-08-01T04:36:59;2.88;;;1.42;;
28607;SDS011;15802;45.654;13.804;2022-08-01T04:39:26;1.77;;;1.45;;
28607;SDS011;15802;45.654;13.804;2022-08-01T04:41:55;2.58;;;1.70;;
28607;SDS011;15802;45.654;13.804;2022-08-01T04:44:24;2.88;;;1.40;;
28607;SDS011;15802;45.654;13.804;2022-08-01T04:46:52;4.72;;;1.45;;
28607;SDS011;15802;45.654;13.804;2022-08-01T04:49:19;3.03;;;1.30;;
28607;SDS011;15802;45.654;13.804;2022-08-01T04:51:54;2.45;;;1.33;;
28607;SDS011;15802;45.654;13.804;2022-08-01T04:54:26;3.38;;;1.50;;
28607;SDS011;15802;45.654;13.804;2022-08-01T04:56:53;3.78;;;1.50;;
28607;SDS011;15802;45.654;13.804;2022-08-01T04:59:27;5.22;;;1.60;;
28607;SDS011;15802;45.654;13.804;2022-08-01T05:02:14;3.55;;;1.60;;
28607;SDS011;15802;45.654;13.804;2022-08-01T05:07:08;3.10;;;1.40;;
28607;SDS011;15802;45.654;13.804;2022-08-01T05:09:35;2.00;;;1.20;;
28607;SDS011;15802;45.654;13.804;2022-08-01T05:12:02;1.80;;;1.30;;
28607;SDS011;15802;45.654;13.804;2022-08-01T05:14:29;2.53;;;1.35;;
28607;SDS011;15802;45.654;13.804;2022-08-01T05:16:57;6.65;;;1.67;;
28607;SDS011;15802;45.654;13.804;2022-08-01T05:19:24;2.30;;;1.38;;
28607;SDS011;15802;45.654;13.804;2022-08-01T05:21:51;2.15;;;1.38;;
28607;SDS011;15802;45.654;13.804;2022-08-01T05:24:17;2.78;;;1.50;;
28607;SDS011;15802;45.654;13.804;2022-08-01T05:26:43;3.50;;;1.38;;
28607;SDS011;15802;45.654;13.804;2022-08-01T05:29:09;2.63;;;1.58;;
28607;SDS011;15802;45.654;13.804;2022-08-01T05:31:34;3.38;;;1.42;;
28607;SDS011;15802;45.654;13.804;2022-08-01T05:34:01;2.92;;;1.67;;
28607;SDS011;15802;45.654;13.804;2022-08-01T05:36:27;3.70;;;1.48;;
28607;SDS011;15802;45.654;13.804;2022-08-01T05:38:53;2.20;;;1.35;;
28607;SDS011;15802;45.654;13.804;2022-08-01T05:41:19;2.72;;;1.50;;
28607;SDS011;15802;45.654;13.804;2022-08-01T05:43:45;4.00;;;1.60;;
28607;SDS011;15802;45.654;13.804;2022-08-01T05:46:11;3.00;;;1.85;;
28607;SDS011;15802;45.654;13.804;2022-08-01T05:48:37;1.83;;;1.50;;
28607;SDS011;15802;45.654;13.804;2022-08-01T05:51:03;2.63;;;1.23;;
28607;SDS011;15802;45.654;13.804;2022-08-01T05:53:29;2.45;;;1.50;;
28607;SDS011;15802;45.654;13.804;2022-08-01T05:55:54;2.15;;;1.42;;
28607;SDS011;15802;45.654;13.804;2022-08-01T05:58:20;2.60;;;1.38;;
28607;SDS011;15802;45.654;13.804;2022-08-01T06:00:47;3.38;;;1.33;;
28607;SDS011;15802;45.654;13.804;2022-08-01T06:03:12;3.90;;;1.42;;
28607;SDS011;15802;45.654;13.804;2022-08-01T06:05:39;7.60;;;1.45;;
28607;SDS011;15802;45.654;13.804;2022-08-01T06:08:05;6.20;;;1.52;;
28607;SDS011;15802;45.654;13.804;2022-08-01T06:10:31;13.05;;;2.35;;
28607;SDS011;15802;45.654;13.804;2022-08-01T06:12:57;12.52;;;2.13;;
28607;SDS011;15802;45.654;13.804;2022-08-01T06:15:23;8.50;;;2.40;;
28607;SDS011;15802;45.654;13.804;2022-08-01T06:17:48;11.27;;;2.15;;
28607;SDS011;15802;45.654;13.804;2022-08-01T06:20:14;5.85;;;2.03;;
28607;SDS011;15802;45.654;13.804;2022-08-01T06:22:40;7.50;;;1.90;;
28607;SDS011;15802;45.654;13.804;2022-08-01T06:25:06;4.38;;;1.30;;
28607;SDS011;15802;45.654;13.804;2022-08-01T06:27:34;6.22;;;1.70;;
28607;SDS011;15802;45.654;13.804;2022-08-01T06:30:00;2.10;;;1.27;;
28607;SDS011;15802;45.654;13.804;2022-08-01T06:32:26;4.50;;;1.55;;
28607;SDS011;15802;45.654;13.804;2022-08-01T06:34:52;5.00;;;1.30;;
28607;SDS011;15802;45.654;13.804;2022-08-01T06:37:18;5.10;;;1.77;;
28607;SDS011;15802;45.654;13.804;2022-08-01T06:39:44;6.30;;;2.20;;
28607;SDS011;15802;45.654;13.804;2022-08-01T06:42:10;7.30;;;2.03;;
28607;SDS011;15802;45.654;13.804;2022-08-01T06:44:36;5.10;;;1.70;;
28607;SDS011;15802;45.654;13.804;2022-08-01T06:47:02;3.45;;;1.58;;
28607;SDS011;15802;45.654;13.804;2022-08-01T06:49:27;3.45;;;1.30;;
28607;SDS011;15802;45.654;13.804;2022-08-01T06:51:53;4.05;;;1.50;;
28607;SDS011;15802;45.654;13.804;2022-08-01T06:54:19;2.53;;;1.50;;
28607;SDS011;15802;45.654;13.804;2022-08-01T06:56:46;2.80;;;1.63;;
28607;SDS011;15802;45.654;13.804;2022-08-01T06:59:11;6.97;;;2.05;;
28607;SDS011;15802;45.654;13.804;2022-08-01T07:01:37;5.93;;;1.50;;
28607;SDS011;15802;45.654;13.804;2022-08-01T07:04:03;5.85;;;1.70;;
28607;SDS011;15802;45.654;13.804;2022-08-01T07:06:29;4.28;;;1.80;;
28607;SDS011;15802;45.654;13.804;2022-08-01T07:08:55;3.20;;;1.40;;
28607;SDS011;15802;45.654;13.804;2022-08-01T07:11:22;4.47;;;1.65;;
28607;SDS011;15802;45.654;13.804;2022-08-01T07:13:48;3.20;;;1.77;;
28607;SDS011;15802;45.654;13.804;2022-08-01T07:16:15;2.88;;;1.80;;
28607;SDS011;15802;45.654;13.804;2022-08-01T07:18:41;4.88;;;1.85;;
28607;SDS011;15802;45.654;13.804;2022-08-01T07:21:07;5.45;;;1.92;;
28607;SDS011;15802;45.654;13.804;2022-08-01T07:23:33;5.72;;;1.90;;
28607;SDS011;15802;45.654;13.804;2022-08-01T07:26:00;5.38;;;1.73;;
28607;SDS011;15802;45.654;13.804;2022-08-01T07:28:27;2.47;;;1.90;;
28607;SDS011;15802;45.654;13.804;2022-08-01T07:30:53;3.50;;;1.60;;
28607;SDS011;15802;45.654;13.804;2022-08-01T07:33:19;3.75;;;1.88;;
28607;SDS011;15802;45.654;13.804;2022-08-01T07:35:45;2.75;;;1.50;;
28607;SDS011;15802;45.654;13.804;2022-08-01T07:38:10;4.82;;;1.60;;
28607;SDS011;15802;45.654;13.804;2022-08-01T07:40:36;2.83;;;1.60;;
28607;SDS011;15802;45.654;13.804;2022-08-01T07:43:02;4.05;;;1.83;;
28607;SDS011;15802;45.654;13.804;2022-08-01T07:45:28;3.13;;;1.77;;
28607;SDS011;15802;45.654;13.804;2022-08-01T07:47:54;3.10;;;1.60;;
28607;SDS011;15802;45.654;13.804;2022-08-01T07:50:20;3.55;;;1.60;;
28607;SDS011;15802;45.654;13.804;2022-08-01T07:52:46;3.15;;;1.80;;
28607;SDS011;15802;45.654;13.804;2022-08-01T07:55:12;2.33;;;1.50;;
28607;SDS011;15802;45.654;13.804;2022-08-01T07:57:37;3.30;;;1.98;;
28607;SDS011;15802;45.654;13.804;2022-08-01T08:00:04;2.70;;;1.67;;
28607;SDS011;15802;45.654;13.804;2022-08-01T08:02:31;4.10;;;1.50;;
28607;SDS011;15802;45.654;13.804;2022-08-01T08:04:57;2.25;;;1.60;;
28607;SDS011;15802;45.654;13.804;2022-08-01T08:07:23;3.25;;;1.70;;
28607;SDS011;15802;45.654;13.804;2022-08-01T08:09:49;6.95;;;2.75;;
28607;SDS011;15802;45.654;13.804;2022-08-01T08:12:14;6.95;;;1.80;;
28607;SDS011;15802;45.654;13.804;2022-08-01T08:14:40;4.13;;;1.85;;
28607;SDS011;15802;45.654;13.804;2022-08-01T08:17:06;3.00;;;1.50;;
28607;SDS011;15802;45.654;13.804;2022-08-01T08:19:32;3.17;;;1.88;;
28607;SDS011;15802;45.654;13.804;2022-08-01T08:21:59;5.43;;;2.20;;
28607;SDS011;15802;45.654;13.804;2022-08-01T08:24:25;7.22;;;2.10;;
28607;SDS011;15802;45.654;13.804;2022-08-01T08:26:54;4.00;;;1.90;;
28607;SDS011;15802;45.654;13.804;2022-08-01T08:29:23;4.10;;;2.25;;
28607;SDS011;15802;45.654;13.804;2022-08-01T08:31:52;3.20;;;2.45;;
28607;SDS011;15802;45.654;13.804;2022-08-01T08:34:18;2.97;;;1.90;;
28607;SDS011;15802;45.654;13.804;2022-08-01T08:36:44;3.70;;;2.03;;
28607;SDS011;15802;45.654;13.804;2022-08-01T08:39:10;3.08;;;1.83;;
28607;SDS011;15802;45.654;13.804;2022-08-01T08:41:36;3.05;;;1.83;;
28607;SDS011;15802;45.654;13.804;2022-08-01T08:44:03;3.30;;;2.00;;
28607;SDS011;15802;45.654;13.804;2022-08-01T08:46:31;4.20;;;1.90;;
28607;SDS011;15802;45.654;13.804;2022-08-01T08:48:58;3.60;;;1.90;;
28607;SDS011;15802;45.654;13.804;2022-08-01T08:51:25;3.30;;;1.40;;
28607;SDS011;15802;45.654;13.804;2022-08-01T08:53:54;3.28;;;1.58;;
28607;SDS011;15802;45.654;13.804;2022-08-01T08:56:21;3.63;;;1.60;;
28607;SDS011;15802;45.654;13.804;2022-08-01T08:58:49;3.75;;;1.67;;
28607;SDS011;15802;45.654;13.804;2022-08-01T09:01:16;1.92;;;1.48;;
28607;SDS011;15802;45.654;13.804;2022-08-01T09:03:42;3.03;;;1.55;;
28607;SDS011;15802;45.654;13.804;2022-08-01T09:06:09;2.45;;;1.50;;
28607;SDS011;15802;45.654;13.804;2022-08-01T09:08:35;3.92;;;1.65;;
28607;SDS011;15802;45.654;13.804;2022-08-01T09:11:01;8.98;;;2.00;;
28607;SDS011;15802;45.654;13.804;2022-08-01T09:13:28;3.13;;;1.67;;
28607;SDS011;15802;45.654;13.804;2022-08-01T09:15:55;4.50;;;2.00;;
28607;SDS011;15802;45.654;13.804;2022-08-01T09:18:40;3.13;;;1.65;;
28607;SDS011;15802;45.654;13.804;2022-08-01T09:21:09;4.78;;;2.58;;
28607;SDS011;15802;45.654;13.804;2022-08-01T09:23:40;3.78;;;1.80;;
28607;SDS011;15802;45.654;13.804;2022-08-01T09:26:10;3.30;;;1.85;;
28607;SDS011;15802;45.654;13.804;2022-08-01T09:28:38;2.83;;;1.75;;
28607;SDS011;15802;45.654;13.804;2022-08-01T09:31:07;3.40;;;1.67;;
28607;SDS011;15802;45.654;13.804;2022-08-01T09:36:24;4.45;;;1.60;;
28607;SDS011;15802;45.654;13.804;2022-08-01T09:38:52;4.25;;;1.65;;
28607;SDS011;15802;45.654;13.804;2022-08-01T09:41:34;3.47;;;1.70;;
28607;SDS011;15802;45.654;13.804;2022-08-01T09:44:00;3.80;;;1.55;;
28607;SDS011;15802;45.654;13.804;2022-08-01T09:46:26;4.95;;;2.00;;
28607;SDS011;15802;45.654;13.804;2022-08-01T09:48:55;3.25;;;1.60;;
28607;SDS011;15802;45.654;13.804;2022-08-01T09:51:31;2.25;;;1.60;;
28607;SDS011;15802;45.654;13.804;2022-08-01T09:53:59;5.35;;;1.85;;
28607;SDS011;15802;45.654;13.804;2022-08-01T09:56:34;2.60;;;1.67;;
28607;SDS011;15802;45.654;13.804;2022-08-01T09:59:02;4.32;;;1.35;;
28607;SDS011;15802;45.654;13.804;2022-08-01T10:01:37;2.25;;;1.45;;
28607;SDS011;15802;45.654;13.804;2022-08-01T10:04:11;2.50;;;1.70;;
28607;SDS011;15802;45.654;13.804;2022-08-01T10:06:40;2.95;;;1.73;;
28607;SDS011;15802;45.654;13.804;2022-08-01T10:09:09;3.70;;;1.70;;
28607;SDS011;15802;45.654;13.804;2022-08-01T10:11:36;1.98;;;1.25;;
28607;SDS011;15802;45.654;13.804;2022-08-01T10:14:04;3.92;;;1.70;;
28607;SDS011;15802;45.654;13.804;2022-08-01T10:16:32;2.50;;;1.48;;
28607;SDS011;15802;45.654;13.804;2022-08-01T10:18:59;2.70;;;1.50;;
28607;SDS011;15802;45.654;13.804;2022-08-01T10:21:26;3.90;;;1.48;;
28607;SDS011;15802;45.654;13.804;2022-08-01T10:23:54;2.72;;;1.50;;
28607;SDS011;15802;45.654;13.804;2022-08-01T10:26:21;4.00;;;1.58;;
28607;SDS011;15802;45.654;13.804;2022-08-01T10:28:50;2.55;;;1.33;;
28607;SDS011;15802;45.654;13.804;2022-08-01T10:31:17;2.65;;;1.50;;
28607;SDS011;15802;45.654;13.804;2022-08-01T10:33:44;2.45;;;1.40;;
28607;SDS011;15802;45.654;13.804;2022-08-01T10:36:10;2.55;;;1.40;;
28607;SDS011;15802;45.654;13.804;2022-08-01T10:38:36;2.55;;;1.40;;
28607;SDS011;15802;45.654;13.804;2022-08-01T10:41:03;4.05;;;1.60;;
28607;SDS011;15802;45.654;13.804;2022-08-01T10:43:29;2.35;;;1.52;;
28607;SDS011;15802;45.654;13.804;2022-08-01T10:45:55;3.45;;;1.33;;
28607;SDS011;15802;45.654;13.804;2022-08-01T10:48:29;2.25;;;1.38;;
28607;SDS011;15802;45.654;13.804;2022-08-01T10:51:04;2.03;;;1.33;;
28607;SDS011;15802;45.654;13.804;2022-08-01T10:53:31;2.20;;;1.42;;
28607;SDS011;15802;45.654;13.804;2022-08-01T10:55:59;2.47;;;1.50;;
28607;SDS011;15802;45.654;13.804;2022-08-01T10:58:31;2.55;;;1.60;;
28607;SDS011;15802;45.654;13.804;2022-08-01T11:01:15;4.60;;;1.75;;
28607;SDS011;15802;45.654;13.804;2022-08-01T11:03:59;2.72;;;1.40;;
28607;SDS011;15802;45.654;13.804;2022-08-01T11:06:39;3.70;;;2.55;;
28607;SDS011;15802;45.654;13.804;2022-08-01T11:09:30;4.25;;;1.85;;
28607;SDS011;15802;45.654;13.804;2022-08-01T11:12:13;4.35;;;1.95;;
28607;SDS011;15802;45.654;13.804;2022-08-01T11:17:50;4.13;;;1.75;;
28607;SDS011;15802;45.654;13.804;2022-08-01T11:20:21;3.67;;;1.58;;
28607;SDS011;15802;45.654;13.804;2022-08-01T11:26:08;2.97;;;2.00;;
28607;SDS011;15802;45.654;13.804;2022-08-01T11:28:34;1.85;;;1.40;;
28607;SDS011;15802;45.654;13.804;2022-08-01T11:33:50;3.17;;;1.60;;
28607;SDS011;15802;45.654;13.804;2022-08-01T11:36:16;2.65;;;1.80;;
28607;SDS011;15802;45.654;13.804;2022-08-01T11:38:44;2.92;;;1.33;;
28607;SDS011;15802;45.654;13.804;2022-08-01T11:41:13;3.10;;;1.70;;
28607;SDS011;15802;45.654;13.804;2022-08-01T11:43:58;2.40;;;1.42;;
28607;SDS011;15802;45.654;13.804;2022-08-01T11:51:08;5.38;;;1.70;;
28607;SDS011;15802;45.654;13.804;2022-08-01T11:53:48;3.47;;;1.70;;
28607;SDS011;15802;45.654;13.804;2022-08-01T11:56:15;2.25;;;1.70;;
28607;SDS011;15802;45.654;13.804;2022-08-01T11:58:41;3.13;;;1.60;;
28607;SDS011;15802;45.654;13.804;2022-08-01T12:01:07;1.55;;;1.40;;
28607;SDS011;15802;45.654;13.804;2022-08-01T12:03:38;3.13;;;1.50;;
28607;SDS011;15802;45.654;13.804;2022-08-01T12:06:03;3.05;;;1.38;;
28607;SDS011;15802;45.654;13.804;2022-08-01T12:08:30;4.00;;;1.67;;
28607;SDS011;15802;45.654;13.804;2022-08-01T12:10:58;1.75;;;1.27;;
28607;SDS011;15802;45.654;13.804;2022-08-01T12:13:26;4.00;;;1.55;;
28607;SDS011;15802;45.654;13.804;2022-08-01T12:15:53;2.17;;;1.58;;
28607;SDS011;15802;45.654;13.804;2022-08-01T12:18:19;2.17;;;1.30;;
28607;SDS011;15802;45.654;13.804;2022-08-01T12:20:45;2.67;;;1.67;;
28607;SDS011;15802;45.654;13.804;2022-08-01T12:23:12;2.60;;;1.50;;
28607;SDS011;15802;45.654;13.804;2022-08-01T12:25:39;3.03;;;1.38;;
28607;SDS011;15802;45.654;13.804;2022-08-01T12:28:09;4.22;;;1.30;;
28607;SDS011;15802;45.654;13.804;2022-08-01T12:30:38;2.22;;;1.30;;
28607;SDS011;15802;45.654;13.804;2022-08-01T12:33:05;2.38;;;1.13;;
28607;SDS011;15802;45.654;13.804;2022-08-01T12:35:32;2.08;;;1.27;;
28607;SDS011;15802;45.654;13.804;2022-08-01T12:38:00;1.77;;;1.17;;
28607;SDS011;15802;45.654;13.804;2022-08-01T12:40:29;2.15;;;1.40;;
28607;SDS011;15802;45.654;13.804;2022-08-01T12:42:58;2.38;;;1.23;;
28607;SDS011;15802;45.654;13.804;2022-08-01T12:45:43;2.53;;;1.00;;
28607;SDS011;15802;45.654;13.804;2022-08-01T12:48:12;0.88;;;0.77;;
28607;SDS011;15802;45.654;13.804;2022-08-01T12:50:42;1.10;;;0.93;;
28607;SDS011;15802;45.654;13.804;2022-08-01T12:53:10;1.70;;;1.10;;
28607;SDS011;15802;45.654;13.804;2022-08-01T12:55:52;5.00;;;1.02;;
28607;SDS011;15802;45.654;13.804;2022-08-01T12:58:20;1.40;;;0.90;;
28607;SDS011;15802;45.654;13.804;2022-08-01T13:00:47;1.65;;;1.20;;
28607;SDS011;15802;45.654;13.804;2022-08-01T13:03:17;1.40;;;1.10;;
28607;SDS011;15802;45.654;13.804;2022-08-01T13:05:47;1.80;;;1.20;;
28607;SDS011;15802;45.654;13.804;2022-08-01T13:08:18;1.80;;;1.20;;
28607;SDS011;15802;45.654;13.804;2022-08-01T13:10:45;1.60;;;1.25;;
28607;SDS011;15802;45.654;13.804;2022-08-01T13:13:12;2.05;;;1.35;;
28607;SDS011;15802;45.654;13.804;2022-08-01T13:15:40;1.88;;;1.10;;
28607;SDS011;15802;45.654;13.804;2022-08-01T13:21:12;2.05;;;1.23;;
28607;SDS011;15802;45.654;13.804;2022-08-01T13:23:42;2.75;;;1.10;;
28607;SDS011;15802;45.654;13.804;2022-08-01T13:26:45;3.17;;;0.95;;
28607;SDS011;15802;45.654;13.804;2022-08-01T13:29:17;2.45;;;1.20;;
28607;SDS011;15802;45.654;13.804;2022-08-01T13:31:45;2.05;;;1.00;;
28607;SDS011;15802;45.654;13.804;2022-08-01T13:34:12;1.98;;;1.08;;
28607;SDS011;15802;45.654;13.804;2022-08-01T13:36:38;2.50;;;1.25;;
28607;SDS011;15802;45.654;13.804;2022-08-01T13:39:04;1.73;;;0.98;;
28607;SDS011;15802;45.654;13.804;2022-08-01T13:41:49;1.70;;;0.98;;
28607;SDS011;15802;45.654;13.804;2022-08-01T13:44:16;1.83;;;1.02;;
28607;SDS011;15802;45.654;13.804;2022-08-01T13:46:42;1.35;;;0.90;;
28607;SDS011;15802;45.654;13.804;2022-08-01T13:49:09;2.53;;;0.80;;
28607;SDS011;15802;45.654;13.804;2022-08-01T13:51:36;2.15;;;1.13;;
28607;SDS011;15802;45.654;13.804;2022-08-01T13:54:04;1.48;;;1.20;;
28607;SDS011;15802;45.654;13.804;2022-08-01T13:56:30;2.15;;;1.08;;
28607;SDS011;15802;45.654;13.804;2022-08-01T13:58:57;1.58;;;0.80;;
28607;SDS011;15802;45.654;13.804;2022-08-01T14:01:23;1.05;;;0.77;;
28607;SDS011;15802;45.654;13.804;2022-08-01T14:03:49;1.52;;;0.82;;
28607;SDS011;15802;45.654;13.804;2022-08-01T14:06:16;1.90;;;1.10;;
28607;SDS011;15802;45.654;13.804;2022-08-01T14:08:43;1.83;;;0.88;;
28607;SDS011;15802;45.654;13.804;2022-08-01T14:11:10;1.63;;;0.90;;
28607;SDS011;15802;45.654;13.804;2022-08-01T14:13:36;1.63;;;0.70;;
28607;SDS011;15802;45.654;13.804;2022-08-01T14:16:04;1.40;;;0.63;;
28607;SDS011;15802;45.654;13.804;2022-08-01T14:18:30;1.23;;;0.63;;
28607;SDS011;15802;45.654;13.804;2022-08-01T14:20:56;1.30;;;0.65;;
28607;SDS011;15802;45.654;13.804;2022-08-01T14:23:22;1.30;;;0.65;;
28607;SDS011;15802;45.654;13.804;2022-08-01T14:25:47;1.75;;;0.70;;
28607;SDS011;15802;45.654;13.804;2022-08-01T14:28:13;2.70;;;0.90;;
28607;SDS011;15802;45.654;13.804;2022-08-01T14:30:39;1.58;;;0.70;;
28607;SDS011;15802;45.654;13.804;2022-08-01T14:33:07;1.67;;;0.70;;
28607;SDS011;15802;45.654;13.804;2022-08-01T14:35:33;1.77;;;0.70;;
28607;SDS011;15802;45.654;13.804;2022-08-01T14:37:59;0.93;;;0.60;;
28607;SDS011;15802;45.654;13.804;2022-08-01T14:40:25;0.85;;;0.63;;
28607;SDS011;15802;45.654;13.804;2022-08-01T14:42:50;1.45;;;0.85;;
28607;SDS011;15802;45.654;13.804;2022-08-01T14:45:16;1.50;;;0.55;;
28607;SDS011;15802;45.654;13.804;2022-08-01T14:47:42;1.90;;;0.70;;
28607;SDS011;15802;45.654;13.804;2022-08-01T14:50:09;1.55;;;0.82;;
28607;SDS011;15802;45.654;13.804;2022-08-01T14:52:37;0.93;;;0.60;;
28607;SDS011;15802;45.654;13.804;2022-08-01T14:55:04;1.25;;;0.60;;
28607;SDS011;15802;45.654;13.804;2022-08-01T14:57:32;1.52;;;0.80;;
28607;SDS011;15802;45.654;13.804;2022-08-01T14:59:59;1.48;;;0.68;;
28607;SDS011;15802;45.654;13.804;2022-08-01T15:02:25;1.60;;;0.73;;
28607;SDS011;15802;45.654;13.804;2022-08-01T15:04:50;2.25;;;0.90;;